Flight Track Log - Related Links

Times and Time Zones

All times are in EDT time to prevent confusion due to time zone crossing. See the N201LH flight status page for this flight to view local times or setup timezone preferences in your user account.

Time Position Orientation Groundspeed Altitude Reporting Facility
EDT Latitude Longitude Course Direction KTS MPH feet Rate Location/Type
Mon 05:25:22 PM 39.1167 -84.4000 360° North 104 120 1,000  Level Cincinnati TRACON
Mon 05:25:52 PM 39.1333 -84.4000 360° North 89 102 1,300 667 Climbing Cincinnati TRACON
Mon 05:26:52 PM 39.1500 -84.3833 38° Northeast 90 104 2,000 684 Climbing Cincinnati TRACON
Mon 05:27:46 PM 39.1667 -84.3833 360° North 90 104 2,600 629 Climbing Cincinnati TRACON
Mon 05:28:37 PM 39.1950 -84.3900 350° North 110 127 3,100 531 Climbing Indianapolis Center
Mon 05:29:39 PM 39.2200 -84.3878 North 92 106 3,600 488 Climbing Indianapolis Center
Mon 05:30:40 PM 39.2461 -84.3836 North 93 107 4,100 537 Climbing Indianapolis Center
Mon 05:31:42 PM 39.2731 -84.3831 North 94 108 4,700 581 Climbing Indianapolis Center
Mon 05:32:44 PM 39.3000 -84.3800 North 95 109 5,300 566 Climbing Indianapolis Center
Mon 05:33:28 PM 39.3211 -84.3778 North 100 115 5,700 483 Climbing Indianapolis Center
Mon 05:34:11 PM 39.3406 -84.3731 11° North 102 117 6,000 380 Climbing Indianapolis Center
Mon 05:34:47 PM 39.3550 -84.3725 North 99 114 6,200 551 Climbing Indianapolis Center
Mon 05:35:49 PM 39.3819 -84.3692 North 98 113 6,900 581 Climbing Indianapolis Center
Mon 05:36:51 PM 39.4136 -84.3653 North 95 109 7,400 488 Climbing Indianapolis Center
Mon 05:37:52 PM 39.4431 -84.3544 16° North 104 120 7,900 293 Climbing Indianapolis Center
Mon 05:38:54 PM 39.4747 -84.3458 12° North 112 129 8,000 48 Climbing Indianapolis Center
Mon 05:39:56 PM 39.5114 -84.3472 358° North 125 144 8,000  Level Indianapolis Center
Mon 05:40:57 PM 39.5503 -84.3417 North 135 155 8,000  Level Indianapolis Center
Mon 05:41:59 PM 39.5889 -84.3389 North 139 160 8,000  Level Indianapolis Center
Mon 05:43:01 PM 39.6292 -84.3356 North 141 162 8,000  Level Indianapolis Center
Mon 05:44:19 PM 39.6881 -84.3325 North 152 175 8,000  Level Indianapolis Center
Mon 05:45:04 PM 39.7214 -84.3275 North 151 174 8,000  Level Indianapolis Center
Mon 05:46:06 PM 39.7619 -84.3250 North 149 171 8,000  Level Indianapolis Center
Mon 05:47:22 PM 39.8114 -84.3219 North 140 161 8,000  Level Indianapolis Center
Mon 05:48:09 PM 39.8411 -84.3189 North 142 163 8,000  Level Indianapolis Center
Mon 05:49:11 PM 39.8803 -84.3153 North 142 163 8,000  Level Indianapolis Center
Mon 05:50:13 PM 39.9203 -84.3119 North 142 163 8,000  Level Indianapolis Center
Mon 05:51:15 PM 39.9608 -84.3097 North 145 167 8,000  Level Indianapolis Center
Mon 05:52:16 PM 40.0014 -84.3061 North 145 167 8,000  Level Indianapolis Center
Mon 05:53:18 PM 40.0497 -84.3028 North 144 166 8,000  Level Indianapolis Center
Mon 05:54:20 PM 40.0903 -84.2992 North 146 168 8,000  Level Indianapolis Center
Mon 05:55:22 PM 40.1317 -84.2942 North 147 169 8,000  Level Indianapolis Center
Mon 05:56:24 PM 40.1722 -84.2917 North 147 169 8,000  Level Indianapolis Center
Mon 05:57:25 PM 40.2128 -84.2881 North 146 168 8,000  Level Indianapolis Center
Mon 05:58:26 PM 40.2572 -84.2847 North 144 166 8,000  Level Indianapolis Center
Mon 05:59:29 PM 40.2919 -84.2825 North 143 165 8,000  Level Indianapolis Center
Mon 06:00:27 PM 40.3358 -84.2797 North 144 166 8,000  Level Indianapolis Center
Mon 06:01:33 PM 40.3803 -84.2750 North 144 166 8,000  Level Indianapolis Center
Mon 06:02:34 PM 40.4225 -84.2714 North 148 170 8,000  Level Indianapolis Center
Mon 06:03:36 PM 40.4633 -84.2689 North 148 170 8,000  Level Indianapolis Center
Mon 06:04:38 PM 40.5039 -84.2650 North 147 169 8,000  Level Indianapolis Center
Mon 06:05:40 PM 40.5442 -84.2631 North 145 167 8,000  Level Indianapolis Center
Mon 06:06:41 PM 40.5847 -84.2592 North 146 168 8,000  Level Indianapolis Center
Mon 06:07:43 PM 40.6253 -84.2536 North 146 168 8,000  Level Indianapolis Center
Mon 06:08:45 PM 40.6742 -84.2503 North 146 168 8,000  Level Indianapolis Center
Mon 06:09:47 PM 40.7144 -84.2467 North 146 168 8,000  Level Indianapolis Center
Mon 06:10:49 PM 40.7536 -84.2428 North 143 165 8,000  Level Indianapolis Center
Mon 06:11:50 PM 40.7947 -84.2403 North 145 167 8,000  Level Indianapolis Center
Mon 06:12:52 PM 40.8353 -84.2361 North 146 168 8,000  Level Indianapolis Center
Mon 06:13:54 PM 40.8750 -84.2328 North 144 166 8,000  Level Indianapolis Center
Mon 06:14:56 PM 40.9144 -84.2311 North 143 165 8,000  Level Indianapolis Center
Mon 06:15:58 PM 40.9631 -84.2267 North 145 167 8,000  Level Indianapolis Center
Mon 06:17:00 PM 41.0033 -84.2231 North 145 167 8,000  Level Indianapolis Center
Mon 06:18:01 PM 41.0422 -84.2197 North 142 163 8,000 49 Level Indianapolis Center
Mon 06:19:03 PM 41.0806 -84.2164 North 140 161 8,100 48 Climbing Indianapolis Center
Mon 06:20:05 PM 41.1211 -84.2133 North 141 162 8,100 -48 Level Indianapolis Center
Mon 06:21:07 PM 41.1606 -84.2103 North 140 161 8,000 -48 Descending Indianapolis Center
Mon 06:22:09 PM 41.2008 -84.2061 North 142 163 8,000  Level Indianapolis Center
Mon 06:23:11 PM 41.2400 -84.2036 North 141 162 8,000  Level Indianapolis Center
Mon 06:25:00 PM 41.3110 -84.1946 North  Level FlightAware Approximate
Mon 06:32:00 PM 41.5848 -84.1671 North  Level FlightAware Approximate
Mon 06:33:00 PM 41.6239 -84.1637 North  Level FlightAware Approximate
Mon 06:34:00 PM 41.6630 -84.1602 North  Level FlightAware Approximate
Mon 06:35:00 PM 41.7022 -84.1568 North  Level FlightAware Approximate
Mon 06:35:03 PM 41.7119 -84.1689 North 140 161 8,000  Level Cleveland Center
Mon 06:36:00 PM 41.7413 -84.1533 North  Level FlightAware Approximate
Mon 06:36:16 PM 41.7581 -84.1658 North 138 159 8,000  Level Cleveland Center
Mon 06:37:00 PM 41.7804 -84.1499 North  Level FlightAware Approximate
Mon 06:37:17 PM 41.7978 -84.1597 North 139 160 8,000  Level Cleveland Center
Mon 06:38:00 PM 41.8196 -84.1464 North  Level FlightAware Approximate
Mon 06:38:13 PM 41.8311 -84.1589 North 138 159 8,000  Level Cleveland Center
Mon 06:39:00 PM 41.8587 -84.1429 North  Level FlightAware Approximate
Mon 06:39:20 PM 41.8750 -84.1556 North 138 159 8,000  Level Cleveland Center
Mon 06:40:00 PM 41.8979 -84.1395 North  Level FlightAware Approximate
Mon 06:40:15 PM 41.9106 -84.1522 North 139 160 8,000  Level Cleveland Center
Mon 06:41:16 PM 41.9503 -84.1517 North 137 158 8,000  Level Cleveland Center
Mon 06:42:23 PM 41.9900 -84.1453 North 140 161 8,000  Level Cleveland Center
Mon 06:43:25 PM 42.0322 -84.1336 12° North 142 163 8,000  Level Cleveland Center
Mon 06:44:26 PM 42.0697 -84.1303 North 138 159 8,000  Level Cleveland Center
Mon 06:45:27 PM 42.1097 -84.1214 North 136 157 8,000 -47 Level Cleveland Center
Mon 06:46:34 PM 42.1517 -84.1125 North 137 158 7,900  Descending Cleveland Center
Mon 06:47:30 PM 42.1831 -84.1058 North 135 155 8,000 51 Climbing Cleveland Center
Mon 06:48:31 PM 42.2250 -84.0969 North 135 155 8,000  Level Cleveland Center
Mon 06:49:32 PM 42.2628 -84.0906 North 139 160 8,000  Level Cleveland Center
Mon 06:50:33 PM 42.3028 -84.0842 North 139 160 8,000  Level Cleveland Center
Mon 06:51:40 PM 42.3447 -84.0725 12° North 139 160 8,000  Level Cleveland Center
Mon 06:52:41 PM 42.3822 -84.0689 North 138 159 8,000  Level Cleveland Center
Mon 06:53:42 PM 42.4222 -84.0600 North 139 160 8,000  Level Cleveland Center
Mon 06:55:00 PM 42.4705 -84.0489 10° North  Level FlightAware Approximate
Mon 07:02:00 PM 42.7310 -83.9932 North  Level FlightAware Approximate
Mon 07:03:00 PM 42.7685 -83.9878 North  Level FlightAware Approximate
Mon 07:04:00 PM 42.8059 -83.9822 North  Level FlightAware Approximate
Mon 07:05:00 PM 42.8432 -83.9747 North  Level FlightAware Approximate
Mon 07:06:00 PM 42.8804 -83.9673 North  Level FlightAware Approximate
Mon 07:07:00 PM 42.9177 -83.9598 North  Level FlightAware Approximate
Mon 07:08:00 PM 42.9550 -83.9523 North  Level FlightAware Approximate
Mon 07:09:00 PM 42.9920 -83.9431 11° North  Level FlightAware Approximate
Mon 07:10:00 PM 43.0290 -83.9330 11° North  Level FlightAware Approximate
Mon 07:11:00 PM 43.0659 -83.9230 11° North  Level FlightAware Approximate
Mon 07:12:00 PM 43.1028 -83.9129 11° North  Level FlightAware Approximate
Mon 07:13:00 PM 43.1398 -83.9028 11° North  Level FlightAware Approximate
Mon 07:14:00 PM 43.1772 -83.9000 North  Level FlightAware Approximate
Mon 07:15:00 PM 43.2149 -83.9000 North  Level FlightAware Approximate
Mon 07:16:00 PM 43.2522 -83.8929 North  Level FlightAware Approximate
Mon 07:17:00 PM 43.2895 -83.8855 North  Level FlightAware Approximate
Mon 07:18:00 PM 43.3268 -83.8780 North  Level FlightAware Approximate
Mon 07:19:00 PM 43.3640 -83.8705 North  Level FlightAware Approximate
Mon 07:20:00 PM 43.4010 -83.8608 14° North  Level FlightAware Approximate
Mon 07:21:00 PM 43.4333 -83.8500 14° North  Level FlightAware Approximate

Login

Don't have an account? Register now (free) for customized features, flight alerts, and more!